Terminal Aerodrome Forecast
Issued by NWS

Home | Current Version | Previous Version | Text Only | Print | Product List | Glossary On
Versions: 1 2 3 4 5 6 7 8 9 10 11 12 13 14 15 16 17 18
000
FTUS43 KILX 011100 RRA
TAFDEC
TAF
KDEC 011149Z 0112/0212 VRB04KT 2SM -SN BR SCT012 OVC030
      TEMPO 0112/0115 3/4SM -SN BR SCT006 OVC012
     FM011500 VRB03KT 2SM -SN BR SCT007 OVC015
     FM012000 29005KT P6SM OVC020
     FM020300 30010KT P6SM SCT025 BKN200=

USA.gov is the U.S. government's official web portal to all federal, state and local government web resources and services.